sensor_id;sensor_type;location;lat;lon;timestamp;temperature;humidity
37560;DHT22;23398;50.928;7.084;2023-05-08T00:00:37;18.70;92.40
37560;DHT22;23398;50.928;7.084;2023-05-08T00:03:03;18.80;92.40
37560;DHT22;23398;50.928;7.084;2023-05-08T00:05:29;18.80;92.40
37560;DHT22;23398;50.928;7.084;2023-05-08T00:07:55;18.70;92.30
37560;DHT22;23398;50.928;7.084;2023-05-08T00:10:26;18.70;92.30
37560;DHT22;23398;50.928;7.084;2023-05-08T00:12:52;18.70;92.30
37560;DHT22;23398;50.928;7.084;2023-05-08T00:15:18;18.70;92.50
37560;DHT22;23398;50.928;7.084;2023-05-08T00:17:43;18.70;92.50
37560;DHT22;23398;50.928;7.084;2023-05-08T00:20:09;18.70;92.60
37560;DHT22;23398;50.928;7.084;2023-05-08T00:22:36;18.70;92.80
37560;DHT22;23398;50.928;7.084;2023-05-08T00:25:01;18.70;92.70
37560;DHT22;23398;50.928;7.084;2023-05-08T00:27:28;18.60;93.10
37560;DHT22;23398;50.928;7.084;2023-05-08T00:29:54;18.60;92.90
37560;DHT22;23398;50.928;7.084;2023-05-08T00:32:19;18.60;92.90
37560;DHT22;23398;50.928;7.084;2023-05-08T00:34:45;18.60;92.90
37560;DHT22;23398;50.928;7.084;2023-05-08T00:37:10;18.60;93.00
37560;DHT22;23398;50.928;7.084;2023-05-08T00:39:36;18.60;93.40
37560;DHT22;23398;50.928;7.084;2023-05-08T00:42:02;18.60;93.00
37560;DHT22;23398;50.928;7.084;2023-05-08T00:44:27;18.60;93.00
37560;DHT22;23398;50.928;7.084;2023-05-08T00:46:53;18.60;93.00
37560;DHT22;23398;50.928;7.084;2023-05-08T00:49:19;18.60;93.00
37560;DHT22;23398;50.928;7.084;2023-05-08T00:51:46;18.60;93.00
37560;DHT22;23398;50.928;7.084;2023-05-08T00:54:13;18.60;93.00
37560;DHT22;23398;50.928;7.084;2023-05-08T00:56:39;19.30;93.30
37560;DHT22;23398;50.928;7.084;2023-05-08T00:59:08;18.60;92.80
37560;DHT22;23398;50.928;7.084;2023-05-08T01:01:36;18.60;93.00
37560;DHT22;23398;50.928;7.084;2023-05-08T01:04:05;18.60;92.90
37560;DHT22;23398;50.928;7.084;2023-05-08T01:06:31;18.60;93.00
37560;DHT22;23398;50.928;7.084;2023-05-08T01:08:59;18.60;93.00
37560;DHT22;23398;50.928;7.084;2023-05-08T01:16:46;18.50;93.50
37560;DHT22;23398;50.928;7.084;2023-05-08T01:34:20;18.50;93.40
37560;DHT22;23398;50.928;7.084;2023-05-08T01:37:56;18.50;93.10
37560;DHT22;23398;50.928;7.084;2023-05-08T01:40:08;18.50;93.30
37560;DHT22;23398;50.928;7.084;2023-05-08T01:42:48;18.50;93.40
37560;DHT22;23398;50.928;7.084;2023-05-08T01:45:37;18.50;93.30
37560;DHT22;23398;50.928;7.084;2023-05-08T01:48:04;18.40;93.40
37560;DHT22;23398;50.928;7.084;2023-05-08T01:50:37;18.40;93.00
37560;DHT22;23398;50.928;7.084;2023-05-08T01:53:09;18.40;93.10
37560;DHT22;23398;50.928;7.084;2023-05-08T01:55:38;18.40;93.10
37560;DHT22;23398;50.928;7.084;2023-05-08T01:58:09;18.40;93.00
37560;DHT22;23398;50.928;7.084;2023-05-08T02:00:37;18.40;93.50
37560;DHT22;23398;50.928;7.084;2023-05-08T02:03:05;18.40;93.10
37560;DHT22;23398;50.928;7.084;2023-05-08T02:05:33;18.30;93.10
37560;DHT22;23398;50.928;7.084;2023-05-08T02:08:00;18.30;93.10
37560;DHT22;23398;50.928;7.084;2023-05-08T02:10:27;18.30;93.20
37560;DHT22;23398;50.928;7.084;2023-05-08T02:12:54;18.30;93.30
37560;DHT22;23398;50.928;7.084;2023-05-08T02:15:21;18.30;93.30
37560;DHT22;23398;50.928;7.084;2023-05-08T02:17:49;18.20;93.30
37560;DHT22;23398;50.928;7.084;2023-05-08T02:20:17;18.30;93.40
37560;DHT22;23398;50.928;7.084;2023-05-08T02:22:49;18.20;93.30
37560;DHT22;23398;50.928;7.084;2023-05-08T02:25:15;18.30;93.40
37560;DHT22;23398;50.928;7.084;2023-05-08T02:27:43;18.30;93.40
37560;DHT22;23398;50.928;7.084;2023-05-08T02:30:15;18.20;93.40
37560;DHT22;23398;50.928;7.084;2023-05-08T02:32:43;18.30;93.50
37560;DHT22;23398;50.928;7.084;2023-05-08T02:35:12;18.20;93.40
37560;DHT22;23398;50.928;7.084;2023-05-08T02:37:40;18.20;93.40
37560;DHT22;23398;50.928;7.084;2023-05-08T02:40:08;18.20;93.40
37560;DHT22;23398;50.928;7.084;2023-05-08T02:42:34;18.20;93.40
37560;DHT22;23398;50.928;7.084;2023-05-08T02:45:00;18.20;93.40
37560;DHT22;23398;50.928;7.084;2023-05-08T02:47:32;18.20;93.40
37560;DHT22;23398;50.928;7.084;2023-05-08T02:50:30;18.20;93.40
37560;DHT22;23398;50.928;7.084;2023-05-08T02:53:06;18.20;93.70
37560;DHT22;23398;50.928;7.084;2023-05-08T02:55:48;18.20;93.50
37560;DHT22;23398;50.928;7.084;2023-05-08T02:58:43;18.20;93.60
37560;DHT22;23398;50.928;7.084;2023-05-08T03:01:20;18.20;93.60
37560;DHT22;23398;50.928;7.084;2023-05-08T03:04:10;18.20;93.30
37560;DHT22;23398;50.928;7.084;2023-05-08T03:06:41;18.20;93.30
37560;DHT22;23398;50.928;7.084;2023-05-08T03:09:14;18.10;93.20
37560;DHT22;23398;50.928;7.084;2023-05-08T03:11:43;18.20;93.30
37560;DHT22;23398;50.928;7.084;2023-05-08T03:14:13;18.10;93.20
37560;DHT22;23398;50.928;7.084;2023-05-08T03:16:41;18.20;93.30
37560;DHT22;23398;50.928;7.084;2023-05-08T03:19:15;18.20;93.30
37560;DHT22;23398;50.928;7.084;2023-05-08T03:21:43;18.10;93.40
37560;DHT22;23398;50.928;7.084;2023-05-08T03:24:10;18.10;93.30
37560;DHT22;23398;50.928;7.084;2023-05-08T03:26:36;18.10;93.20
37560;DHT22;23398;50.928;7.084;2023-05-08T03:29:03;18.10;93.20
37560;DHT22;23398;50.928;7.084;2023-05-08T03:31:31;18.10;93.20
37560;DHT22;23398;50.928;7.084;2023-05-08T03:33:57;18.10;93.20
37560;DHT22;23398;50.928;7.084;2023-05-08T03:36:24;18.10;93.10
37560;DHT22;23398;50.928;7.084;2023-05-08T03:38:51;18.10;93.10
37560;DHT22;23398;50.928;7.084;2023-05-08T03:41:16;18.10;93.00
37560;DHT22;23398;50.928;7.084;2023-05-08T03:43:43;18.10;93.10
37560;DHT22;23398;50.928;7.084;2023-05-08T03:46:08;18.10;93.10
37560;DHT22;23398;50.928;7.084;2023-05-08T03:48:34;18.00;93.00
37560;DHT22;23398;50.928;7.084;2023-05-08T03:51:01;18.00;93.00
37560;DHT22;23398;50.928;7.084;2023-05-08T03:53:31;18.00;92.90
37560;DHT22;23398;50.928;7.084;2023-05-08T03:55:58;18.00;92.90
37560;DHT22;23398;50.928;7.084;2023-05-08T03:58:36;18.10;92.90
37560;DHT22;23398;50.928;7.084;2023-05-08T04:04:02;18.00;93.20
37560;DHT22;23398;50.928;7.084;2023-05-08T04:06:49;17.90;92.90
37560;DHT22;23398;50.928;7.084;2023-05-08T04:15:02;17.90;93.00
37560;DHT22;23398;50.928;7.084;2023-05-08T04:17:51;17.80;93.00
37560;DHT22;23398;50.928;7.084;2023-05-08T04:20:25;17.80;93.30
37560;DHT22;23398;50.928;7.084;2023-05-08T04:22:53;17.90;93.10
37560;DHT22;23398;50.928;7.084;2023-05-08T04:25:20;17.80;93.00
37560;DHT22;23398;50.928;7.084;2023-05-08T04:27:46;17.80;93.00
37560;DHT22;23398;50.928;7.084;2023-05-08T04:30:13;17.80;93.00
37560;DHT22;23398;50.928;7.084;2023-05-08T04:32:40;17.80;93.00
37560;DHT22;23398;50.928;7.084;2023-05-08T04:35:06;17.80;93.00
37560;DHT22;23398;50.928;7.084;2023-05-08T04:37:32;17.80;93.00
37560;DHT22;23398;50.928;7.084;2023-05-08T04:39:58;17.80;93.00
37560;DHT22;23398;50.928;7.084;2023-05-08T04:42:24;17.80;93.00
37560;DHT22;23398;50.928;7.084;2023-05-08T04:44:53;17.80;93.00
37560;DHT22;23398;50.928;7.084;2023-05-08T04:47:19;17.80;93.00
37560;DHT22;23398;50.928;7.084;2023-05-08T04:49:45;17.80;93.00
37560;DHT22;23398;50.928;7.084;2023-05-08T04:52:10;17.70;93.00
37560;DHT22;23398;50.928;7.084;2023-05-08T04:54:36;17.80;93.00
37560;DHT22;23398;50.928;7.084;2023-05-08T04:57:02;17.80;92.90
37560;DHT22;23398;50.928;7.084;2023-05-08T04:59:28;17.80;92.90
37560;DHT22;23398;50.928;7.084;2023-05-08T05:01:54;17.80;92.90
37560;DHT22;23398;50.928;7.084;2023-05-08T05:04:21;17.80;92.90
37560;DHT22;23398;50.928;7.084;2023-05-08T05:06:47;17.80;92.90
37560;DHT22;23398;50.928;7.084;2023-05-08T05:09:13;17.80;92.90
37560;DHT22;23398;50.928;7.084;2023-05-08T05:11:38;17.80;92.90
37560;DHT22;23398;50.928;7.084;2023-05-08T05:14:04;17.80;93.00
37560;DHT22;23398;50.928;7.084;2023-05-08T05:16:31;17.80;93.10
37560;DHT22;23398;50.928;7.084;2023-05-08T05:18:57;17.80;93.00
37560;DHT22;23398;50.928;7.084;2023-05-08T05:21:23;17.80;92.90
37560;DHT22;23398;50.928;7.084;2023-05-08T05:23:49;17.90;92.90
37560;DHT22;23398;50.928;7.084;2023-05-08T05:26:14;18.00;92.90
37560;DHT22;23398;50.928;7.084;2023-05-08T05:28:40;17.90;92.70
37560;DHT22;23398;50.928;7.084;2023-05-08T05:31:06;18.00;92.60
37560;DHT22;23398;50.928;7.084;2023-05-08T05:33:32;18.00;92.50
37560;DHT22;23398;50.928;7.084;2023-05-08T05:35:57;18.00;92.50
37560;DHT22;23398;50.928;7.084;2023-05-08T05:38:23;18.10;92.50
37560;DHT22;23398;50.928;7.084;2023-05-08T05:40:49;18.20;92.50
37560;DHT22;23398;50.928;7.084;2023-05-08T05:43:15;18.20;92.40
37560;DHT22;23398;50.928;7.084;2023-05-08T05:45:40;18.20;92.20
37560;DHT22;23398;50.928;7.084;2023-05-08T05:48:06;18.20;92.10
37560;DHT22;23398;50.928;7.084;2023-05-08T05:50:32;18.20;92.10
37560;DHT22;23398;50.928;7.084;2023-05-08T05:52:57;18.30;92.00
37560;DHT22;23398;50.928;7.084;2023-05-08T05:55:23;18.30;92.00
37560;DHT22;23398;50.928;7.084;2023-05-08T05:57:48;18.30;91.90
37560;DHT22;23398;50.928;7.084;2023-05-08T06:00:14;18.40;91.80
37560;DHT22;23398;50.928;7.084;2023-05-08T06:02:41;18.40;91.70
37560;DHT22;23398;50.928;7.084;2023-05-08T06:05:07;18.40;91.60
37560;DHT22;23398;50.928;7.084;2023-05-08T06:07:32;18.40;91.50
37560;DHT22;23398;50.928;7.084;2023-05-08T06:09:59;18.40;91.50
37560;DHT22;23398;50.928;7.084;2023-05-08T06:12:25;18.40;91.60
37560;DHT22;23398;50.928;7.084;2023-05-08T06:14:51;18.40;91.50
37560;DHT22;23398;50.928;7.084;2023-05-08T06:17:17;18.40;91.50
37560;DHT22;23398;50.928;7.084;2023-05-08T06:19:43;18.50;91.50
37560;DHT22;23398;50.928;7.084;2023-05-08T06:22:17;18.40;91.40
37560;DHT22;23398;50.928;7.084;2023-05-08T06:24:43;18.50;91.40
37560;DHT22;23398;50.928;7.084;2023-05-08T06:27:09;18.50;91.40
37560;DHT22;23398;50.928;7.084;2023-05-08T06:29:35;18.50;91.20
37560;DHT22;23398;50.928;7.084;2023-05-08T06:32:02;18.50;91.20
37560;DHT22;23398;50.928;7.084;2023-05-08T06:34:27;18.50;91.10
37560;DHT22;23398;50.928;7.084;2023-05-08T06:36:53;18.60;91.10
37560;DHT22;23398;50.928;7.084;2023-05-08T06:39:18;18.60;91.10
37560;DHT22;23398;50.928;7.084;2023-05-08T06:41:47;18.60;91.10
37560;DHT22;23398;50.928;7.084;2023-05-08T06:44:13;18.70;91.00
37560;DHT22;23398;50.928;7.084;2023-05-08T06:46:39;18.70;90.90
37560;DHT22;23398;50.928;7.084;2023-05-08T06:49:05;18.70;90.90
37560;DHT22;23398;50.928;7.084;2023-05-08T06:51:30;18.80;90.90
37560;DHT22;23398;50.928;7.084;2023-05-08T06:53:57;18.80;91.00
37560;DHT22;23398;50.928;7.084;2023-05-08T06:56:23;18.90;91.00
37560;DHT22;23398;50.928;7.084;2023-05-08T06:58:48;18.90;90.80
37560;DHT22;23398;50.928;7.084;2023-05-08T07:01:14;19.00;90.60
37560;DHT22;23398;50.928;7.084;2023-05-08T07:03:40;19.00;90.50
37560;DHT22;23398;50.928;7.084;2023-05-08T07:06:07;19.10;90.30
37560;DHT22;23398;50.928;7.084;2023-05-08T07:08:34;19.20;90.20
37560;DHT22;23398;50.928;7.084;2023-05-08T07:10:59;19.20;90.10
37560;DHT22;23398;50.928;7.084;2023-05-08T07:13:25;19.30;90.10
37560;DHT22;23398;50.928;7.084;2023-05-08T07:15:50;19.40;90.00
37560;DHT22;23398;50.928;7.084;2023-05-08T07:18:16;19.40;89.60
37560;DHT22;23398;50.928;7.084;2023-05-08T07:20:42;19.70;89.90
37560;DHT22;23398;50.928;7.084;2023-05-08T07:23:07;19.60;89.20
37560;DHT22;23398;50.928;7.084;2023-05-08T07:25:34;19.70;88.60
37560;DHT22;23398;50.928;7.084;2023-05-08T07:28:00;19.80;88.50
37560;DHT22;23398;50.928;7.084;2023-05-08T07:30:25;19.90;88.30
37560;DHT22;23398;50.928;7.084;2023-05-08T07:32:51;20.00;88.30
37560;DHT22;23398;50.928;7.084;2023-05-08T07:35:16;20.20;88.30
37560;DHT22;23398;50.928;7.084;2023-05-08T07:37:42;20.40;88.50
37560;DHT22;23398;50.928;7.084;2023-05-08T07:40:08;20.50;88.40
37560;DHT22;23398;50.928;7.084;2023-05-08T07:42:38;20.80;87.70
37560;DHT22;23398;50.928;7.084;2023-05-08T07:45:04;21.00;86.20
37560;DHT22;23398;50.928;7.084;2023-05-08T07:47:30;21.30;86.10
37560;DHT22;23398;50.928;7.084;2023-05-08T07:49:56;21.60;84.70
37560;DHT22;23398;50.928;7.084;2023-05-08T07:52:22;21.80;83.10
37560;DHT22;23398;50.928;7.084;2023-05-08T07:54:47;22.10;81.60
37560;DHT22;23398;50.928;7.084;2023-05-08T07:57:13;22.30;79.80
37560;DHT22;23398;50.928;7.084;2023-05-08T07:59:39;22.50;78.70
37560;DHT22;23398;50.928;7.084;2023-05-08T08:02:04;22.80;77.60
37560;DHT22;23398;50.928;7.084;2023-05-08T08:04:32;22.80;77.00
37560;DHT22;23398;50.928;7.084;2023-05-08T08:06:58;23.10;77.00
37560;DHT22;23398;50.928;7.084;2023-05-08T08:09:23;23.30;75.30
37560;DHT22;23398;50.928;7.084;2023-05-08T08:11:49;23.50;74.10
37560;DHT22;23398;50.928;7.084;2023-05-08T08:14:15;23.70;72.50
37560;DHT22;23398;50.928;7.084;2023-05-08T08:16:40;23.90;71.40
37560;DHT22;23398;50.928;7.084;2023-05-08T08:19:07;24.00;70.80
37560;DHT22;23398;50.928;7.084;2023-05-08T08:21:33;24.10;69.40
37560;DHT22;23398;50.928;7.084;2023-05-08T08:23:59;24.20;69.20
37560;DHT22;23398;50.928;7.084;2023-05-08T08:26:24;24.30;68.70
37560;DHT22;23398;50.928;7.084;2023-05-08T08:28:51;24.40;68.00
37560;DHT22;23398;50.928;7.084;2023-05-08T08:31:16;24.50;68.40
37560;DHT22;23398;50.928;7.084;2023-05-08T08:33:44;24.50;67.10
37560;DHT22;23398;50.928;7.084;2023-05-08T08:36:13;24.60;66.90
37560;DHT22;23398;50.928;7.084;2023-05-08T08:38:39;24.70;66.20
37560;DHT22;23398;50.928;7.084;2023-05-08T08:41:05;24.80;67.40
37560;DHT22;23398;50.928;7.084;2023-05-08T08:43:30;24.90;66.40
37560;DHT22;23398;50.928;7.084;2023-05-08T08:45:56;25.00;66.60
37560;DHT22;23398;50.928;7.084;2023-05-08T08:48:27;25.10;65.10
37560;DHT22;23398;50.928;7.084;2023-05-08T08:50:58;25.10;64.50
37560;DHT22;23398;50.928;7.084;2023-05-08T08:53:31;25.20;63.90
37560;DHT22;23398;50.928;7.084;2023-05-08T08:56:00;25.20;63.70
37560;DHT22;23398;50.928;7.084;2023-05-08T08:58:39;25.20;63.80
37560;DHT22;23398;50.928;7.084;2023-05-08T09:01:08;25.20;63.30
37560;DHT22;23398;50.928;7.084;2023-05-08T09:03:39;25.20;63.90
37560;DHT22;23398;50.928;7.084;2023-05-08T09:06:05;25.20;64.10
37560;DHT22;23398;50.928;7.084;2023-05-08T09:08:32;25.30;64.20
37560;DHT22;23398;50.928;7.084;2023-05-08T09:11:00;25.40;63.70
37560;DHT22;23398;50.928;7.084;2023-05-08T09:13:27;25.50;62.80
37560;DHT22;23398;50.928;7.084;2023-05-08T09:15:53;25.60;62.60
37560;DHT22;23398;50.928;7.084;2023-05-08T09:18:19;25.70;61.70
37560;DHT22;23398;50.928;7.084;2023-05-08T09:20:45;25.70;61.50
37560;DHT22;23398;50.928;7.084;2023-05-08T09:23:11;25.70;61.20
37560;DHT22;23398;50.928;7.084;2023-05-08T09:25:47;25.70;60.80
37560;DHT22;23398;50.928;7.084;2023-05-08T09:28:23;25.60;60.40
37560;DHT22;23398;50.928;7.084;2023-05-08T09:30:54;25.50;60.40
37560;DHT22;23398;50.928;7.084;2023-05-08T09:33:24;25.40;60.60
37560;DHT22;23398;50.928;7.084;2023-05-08T09:35:50;25.20;60.60
37560;DHT22;23398;50.928;7.084;2023-05-08T09:38:32;25.10;60.70
37560;DHT22;23398;50.928;7.084;2023-05-08T09:41:25;24.90;60.70
37560;DHT22;23398;50.928;7.084;2023-05-08T09:44:04;24.70;61.00
37560;DHT22;23398;50.928;7.084;2023-05-08T09:46:31;24.50;61.50
37560;DHT22;23398;50.928;7.084;2023-05-08T09:49:00;24.30;61.80
37560;DHT22;23398;50.928;7.084;2023-05-08T09:51:27;24.10;62.10
37560;DHT22;23398;50.928;7.084;2023-05-08T09:53:55;23.90;62.50
37560;DHT22;23398;50.928;7.084;2023-05-08T09:56:29;23.70;62.90
37560;DHT22;23398;50.928;7.084;2023-05-08T09:58:54;23.50;63.40
37560;DHT22;23398;50.928;7.084;2023-05-08T10:01:34;23.40;63.70
37560;DHT22;23398;50.928;7.084;2023-05-08T10:04:00;23.20;64.00
37560;DHT22;23398;50.928;7.084;2023-05-08T10:06:27;23.10;64.10
37560;DHT22;23398;50.928;7.084;2023-05-08T10:09:28;23.00;65.20
37560;DHT22;23398;50.928;7.084;2023-05-08T10:11:54;22.80;64.80
37560;DHT22;23398;50.928;7.084;2023-05-08T10:14:23;22.70;65.10
37560;DHT22;23398;50.928;7.084;2023-05-08T10:16:51;22.60;65.40
37560;DHT22;23398;50.928;7.084;2023-05-08T10:19:22;22.40;65.80
37560;DHT22;23398;50.928;7.084;2023-05-08T10:21:50;22.40;66.60
37560;DHT22;23398;50.928;7.084;2023-05-08T10:24:20;22.30;66.80
37560;DHT22;23398;50.928;7.084;2023-05-08T10:27:10;22.20;67.10
37560;DHT22;23398;50.928;7.084;2023-05-08T10:29:45;22.30;67.30
37560;DHT22;23398;50.928;7.084;2023-05-08T10:32:11;22.20;67.90
37560;DHT22;23398;50.928;7.084;2023-05-08T10:34:40;22.10;67.10
37560;DHT22;23398;50.928;7.084;2023-05-08T10:37:08;22.10;67.40
37560;DHT22;23398;50.928;7.084;2023-05-08T10:39:35;22.10;67.80
37560;DHT22;23398;50.928;7.084;2023-05-08T10:42:01;22.00;67.90
37560;DHT22;23398;50.928;7.084;2023-05-08T10:44:27;22.10;68.20
37560;DHT22;23398;50.928;7.084;2023-05-08T10:46:58;21.90;68.30
37560;DHT22;23398;50.928;7.084;2023-05-08T10:52:17;21.90;69.40
37560;DHT22;23398;50.928;7.084;2023-05-08T10:57:19;21.90;69.50
37560;DHT22;23398;50.928;7.084;2023-05-08T10:59:46;22.10;69.50
37560;DHT22;23398;50.928;7.084;2023-05-08T11:02:11;22.00;69.60
37560;DHT22;23398;50.928;7.084;2023-05-08T11:04:37;21.90;69.40
37560;DHT22;23398;50.928;7.084;2023-05-08T11:07:03;21.90;69.50
37560;DHT22;23398;50.928;7.084;2023-05-08T11:12:19;21.80;69.70
37560;DHT22;23398;50.928;7.084;2023-05-08T11:15:02;21.80;69.90
37560;DHT22;23398;50.928;7.084;2023-05-08T11:17:30;21.70;70.10
37560;DHT22;23398;50.928;7.084;2023-05-08T11:20:04;21.70;70.40
37560;DHT22;23398;50.928;7.084;2023-05-08T11:22:31;21.60;70.30
37560;DHT22;23398;50.928;7.084;2023-05-08T11:25:15;21.60;70.30
37560;DHT22;23398;50.928;7.084;2023-05-08T11:35:51;21.50;71.10
37560;DHT22;23398;50.928;7.084;2023-05-08T11:38:27;21.40;72.70
37560;DHT22;23398;50.928;7.084;2023-05-08T11:41:04;21.50;72.50
37560;DHT22;23398;50.928;7.084;2023-05-08T11:46:03;21.60;72.70
37560;DHT22;23398;50.928;7.084;2023-05-08T11:48:29;21.60;72.30
37560;DHT22;23398;50.928;7.084;2023-05-08T11:50:55;21.70;72.60
37560;DHT22;23398;50.928;7.084;2023-05-08T11:53:21;21.70;73.10
37560;DHT22;23398;50.928;7.084;2023-05-08T11:55:47;21.80;74.40
37560;DHT22;23398;50.928;7.084;2023-05-08T11:58:16;21.80;75.00
37560;DHT22;23398;50.928;7.084;2023-05-08T12:00:43;21.80;75.40
37560;DHT22;23398;50.928;7.084;2023-05-08T12:03:13;21.90;76.50
37560;DHT22;23398;50.928;7.084;2023-05-08T12:05:39;21.80;77.40
37560;DHT22;23398;50.928;7.084;2023-05-08T12:08:06;21.80;77.20
37560;DHT22;23398;50.928;7.084;2023-05-08T12:15:42;21.80;75.60
37560;DHT22;23398;50.928;7.084;2023-05-08T12:18:08;21.80;75.70
37560;DHT22;23398;50.928;7.084;2023-05-08T12:20:33;21.80;75.40
37560;DHT22;23398;50.928;7.084;2023-05-08T12:23:01;21.80;75.20
37560;DHT22;23398;50.928;7.084;2023-05-08T12:25:27;21.90;75.20
37560;DHT22;23398;50.928;7.084;2023-05-08T12:27:53;22.00;74.80
37560;DHT22;23398;50.928;7.084;2023-05-08T12:30:18;22.00;74.80
37560;DHT22;23398;50.928;7.084;2023-05-08T12:32:45;22.10;74.40
37560;DHT22;23398;50.928;7.084;2023-05-08T12:35:11;22.40;74.80
37560;DHT22;23398;50.928;7.084;2023-05-08T12:37:37;22.50;74.50
37560;DHT22;23398;50.928;7.084;2023-05-08T12:40:04;22.60;73.70
37560;DHT22;23398;50.928;7.084;2023-05-08T12:42:44;22.80;74.00
37560;DHT22;23398;50.928;7.084;2023-05-08T12:47:46;23.20;72.70
37560;DHT22;23398;50.928;7.084;2023-05-08T12:50:14;23.40;72.60
37560;DHT22;23398;50.928;7.084;2023-05-08T12:52:40;23.60;71.50
37560;DHT22;23398;50.928;7.084;2023-05-08T12:55:25;23.80;70.70
37560;DHT22;23398;50.928;7.084;2023-05-08T12:58:11;24.00;69.50
37560;DHT22;23398;50.928;7.084;2023-05-08T13:00:48;24.20;68.50
37560;DHT22;23398;50.928;7.084;2023-05-08T13:03:27;24.30;68.10
37560;DHT22;23398;50.928;7.084;2023-05-08T13:05:55;24.40;67.00
37560;DHT22;23398;50.928;7.084;2023-05-08T13:08:31;24.50;67.10
37560;DHT22;23398;50.928;7.084;2023-05-08T13:10:58;24.50;66.30
37560;DHT22;23398;50.928;7.084;2023-05-08T13:13:25;24.50;66.30
37560;DHT22;23398;50.928;7.084;2023-05-08T13:15:53;24.50;66.60
37560;DHT22;23398;50.928;7.084;2023-05-08T13:18:22;24.60;65.90
37560;DHT22;23398;50.928;7.084;2023-05-08T13:20:48;24.60;66.00
37560;DHT22;23398;50.928;7.084;2023-05-08T13:23:14;24.60;66.10
37560;DHT22;23398;50.928;7.084;2023-05-08T13:25:40;24.70;65.90
37560;DHT22;23398;50.928;7.084;2023-05-08T13:28:07;24.70;65.90
37560;DHT22;23398;50.928;7.084;2023-05-08T13:30:34;24.80;65.70
37560;DHT22;23398;50.928;7.084;2023-05-08T13:33:00;24.80;65.00
37560;DHT22;23398;50.928;7.084;2023-05-08T13:35:25;24.90;64.70
37560;DHT22;23398;50.928;7.084;2023-05-08T13:37:53;24.90;64.30
37560;DHT22;23398;50.928;7.084;2023-05-08T13:40:19;25.00;64.10
37560;DHT22;23398;50.928;7.084;2023-05-08T13:42:44;25.00;63.90
37560;DHT22;23398;50.928;7.084;2023-05-08T13:45:11;25.10;63.60
37560;DHT22;23398;50.928;7.084;2023-05-08T13:47:41;25.10;63.00
37560;DHT22;23398;50.928;7.084;2023-05-08T13:50:08;25.10;62.70
37560;DHT22;23398;50.928;7.084;2023-05-08T13:52:38;25.10;62.30
37560;DHT22;23398;50.928;7.084;2023-05-08T13:55:05;25.10;62.40
37560;DHT22;23398;50.928;7.084;2023-05-08T13:57:31;25.10;63.00
37560;DHT22;23398;50.928;7.084;2023-05-08T13:59:57;25.10;63.00
37560;DHT22;23398;50.928;7.084;2023-05-08T14:02:22;25.10;62.60
37560;DHT22;23398;50.928;7.084;2023-05-08T14:04:48;25.10;63.00
37560;DHT22;23398;50.928;7.084;2023-05-08T14:07:13;25.10;62.50
37560;DHT22;23398;50.928;7.084;2023-05-08T14:09:39;25.10;62.60
37560;DHT22;23398;50.928;7.084;2023-05-08T14:12:05;25.10;62.80
37560;DHT22;23398;50.928;7.084;2023-05-08T14:14:30;25.20;62.80
37560;DHT22;23398;50.928;7.084;2023-05-08T14:16:56;25.20;62.90
37560;DHT22;23398;50.928;7.084;2023-05-08T14:19:21;25.30;63.30
37560;DHT22;23398;50.928;7.084;2023-05-08T14:21:47;25.40;63.30
37560;DHT22;23398;50.928;7.084;2023-05-08T14:24:12;25.50;62.80
37560;DHT22;23398;50.928;7.084;2023-05-08T14:26:38;25.60;62.40
37560;DHT22;23398;50.928;7.084;2023-05-08T14:29:04;25.70;62.80
37560;DHT22;23398;50.928;7.084;2023-05-08T14:31:29;25.80;62.20
37560;DHT22;23398;50.928;7.084;2023-05-08T14:33:55;25.90;62.10
37560;DHT22;23398;50.928;7.084;2023-05-08T14:36:21;26.00;62.00
37560;DHT22;23398;50.928;7.084;2023-05-08T14:38:47;26.10;61.40
37560;DHT22;23398;50.928;7.084;2023-05-08T14:41:13;26.20;60.70
37560;DHT22;23398;50.928;7.084;2023-05-08T14:43:38;26.20;60.00
37560;DHT22;23398;50.928;7.084;2023-05-08T14:46:04;26.30;59.70
37560;DHT22;23398;50.928;7.084;2023-05-08T14:48:29;26.30;59.30
37560;DHT22;23398;50.928;7.084;2023-05-08T14:50:55;26.20;58.90
37560;DHT22;23398;50.928;7.084;2023-05-08T14:53:21;26.20;59.20
37560;DHT22;23398;50.928;7.084;2023-05-08T14:55:47;26.20;59.40
37560;DHT22;23398;50.928;7.084;2023-05-08T14:58:12;26.20;59.60
37560;DHT22;23398;50.928;7.084;2023-05-08T15:00:38;26.20;59.20
37560;DHT22;23398;50.928;7.084;2023-05-08T15:03:04;26.30;59.20
37560;DHT22;23398;50.928;7.084;2023-05-08T15:05:29;26.30;59.40
37560;DHT22;23398;50.928;7.084;2023-05-08T15:07:55;26.30;58.80
37560;DHT22;23398;50.928;7.084;2023-05-08T15:10:21;26.30;58.40
37560;DHT22;23398;50.928;7.084;2023-05-08T15:12:47;26.30;58.10
37560;DHT22;23398;50.928;7.084;2023-05-08T15:15:13;26.30;57.80
37560;DHT22;23398;50.928;7.084;2023-05-08T15:17:39;26.30;57.90
37560;DHT22;23398;50.928;7.084;2023-05-08T15:20:06;26.30;58.20
37560;DHT22;23398;50.928;7.084;2023-05-08T15:22:32;26.30;58.10
37560;DHT22;23398;50.928;7.084;2023-05-08T15:24:58;26.20;58.20
37560;DHT22;23398;50.928;7.084;2023-05-08T15:27:29;26.20;58.40
37560;DHT22;23398;50.928;7.084;2023-05-08T15:29:55;26.10;58.70
37560;DHT22;23398;50.928;7.084;2023-05-08T15:32:21;26.10;58.40
37560;DHT22;23398;50.928;7.084;2023-05-08T15:34:46;26.10;58.40
37560;DHT22;23398;50.928;7.084;2023-05-08T15:37:12;26.00;59.40
37560;DHT22;23398;50.928;7.084;2023-05-08T15:39:38;25.90;58.70
37560;DHT22;23398;50.928;7.084;2023-05-08T15:42:04;25.90;59.00
37560;DHT22;23398;50.928;7.084;2023-05-08T15:44:30;25.90;59.30
37560;DHT22;23398;50.928;7.084;2023-05-08T15:46:56;25.90;58.80
37560;DHT22;23398;50.928;7.084;2023-05-08T15:49:21;25.90;58.50
37560;DHT22;23398;50.928;7.084;2023-05-08T15:51:52;25.90;58.60
37560;DHT22;23398;50.928;7.084;2023-05-08T15:54:17;25.90;59.00
37560;DHT22;23398;50.928;7.084;2023-05-08T15:56:43;25.90;59.30
37560;DHT22;23398;50.928;7.084;2023-05-08T15:59:09;25.80;59.00
37560;DHT22;23398;50.928;7.084;2023-05-08T16:01:34;25.80;59.00
37560;DHT22;23398;50.928;7.084;2023-05-08T16:04:00;25.80;59.00
37560;DHT22;23398;50.928;7.084;2023-05-08T16:06:26;25.80;58.70
37560;DHT22;23398;50.928;7.084;2023-05-08T16:08:51;25.70;58.50
37560;DHT22;23398;50.928;7.084;2023-05-08T16:11:17;25.70;58.80
37560;DHT22;23398;50.928;7.084;2023-05-08T16:13:43;25.60;58.60
37560;DHT22;23398;50.928;7.084;2023-05-08T16:16:09;25.50;59.10
37560;DHT22;23398;50.928;7.084;2023-05-08T16:18:34;25.50;59.20
37560;DHT22;23398;50.928;7.084;2023-05-08T16:21:00;25.40;59.00
37560;DHT22;23398;50.928;7.084;2023-05-08T16:23:25;25.30;59.10
37560;DHT22;23398;50.928;7.084;2023-05-08T16:25:51;25.30;59.60
37560;DHT22;23398;50.928;7.084;2023-05-08T16:28:17;25.30;59.30
37560;DHT22;23398;50.928;7.084;2023-05-08T16:30:42;25.20;59.40